Time;durP1;ratioP1;P1;durP2;ratioP2;P2;SDS_P1;SDS_P2;PMS_P1;PMS_P2;Temp;Humidity;BMP_temperature;BMP_pressure;BME280_temperature;BME280_humidity;BME280_pressure;Samples;Min_cycle;Max_cycle;Signal;HPM_P1;HPM_P2
2022/02/21 00:02:13;;;;;;;50.05;16.70;;;;;;;-0.02;100.00;100661.00;1668541;86;21673;-92
2022/02/21 00:04:39;;;;;;;47.08;17.82;;;;;;;0.03;100.00;100655.62;1668488;84;21149;-92
2022/02/21 00:07:05;;;;;;;50.35;18.92;;;;;;;0.07;100.00;100660.88;1668360;84;21725;-94
2022/02/21 00:09:31;;;;;;;53.83;20.02;;;;;;;0.12;100.00;100663.77;1668295;84;21078;-91
2022/02/21 00:11:57;;;;;;;53.00;19.75;;;;;;;0.12;100.00;100663.77;1668331;84;21054;-92
2022/02/21 00:14:23;;;;;;;55.98;19.98;;;;;;;0.12;100.00;100661.95;1665494;85;21022;-94
2022/02/21 00:16:49;;;;;;;48.75;17.60;;;;;;;0.12;100.00;100661.95;1663387;85;21175;-94
2022/02/21 00:19:15;;;;;;;55.85;17.20;;;;;;;0.11;100.00;100651.53;1663507;85;20924;-95
2022/02/21 00:21:41;;;;;;;47.23;15.45;;;;;;;0.09;100.00;100649.09;1663486;85;20872;-95
2022/02/21 00:24:07;;;;;;;45.10;16.27;;;;;;;0.08;100.00;100649.27;1663320;86;21147;-95
2022/02/21 00:26:33;;;;;;;46.20;16.12;;;;;;;0.06;100.00;100644.17;1663584;85;21102;-93
2022/02/21 00:29:00;;;;;;;45.88;15.83;;;;;;;0.05;100.00;100644.34;1660068;86;21886;-95
2022/02/21 00:31:26;;;;;;;44.65;16.32;;;;;;;-0.05;100.00;100632.24;1663408;86;21069;-94
2022/02/21 00:33:54;;;;;;;45.38;16.07;;;;;;;-0.04;100.00;100640.49;1663662;86;21062;-95
2022/02/21 00:36:20;;;;;;;36.00;14.30;;;;;;;-0.09;100.00;100642.91;1663355;85;21031;-93
2022/02/21 00:38:46;;;;;;;41.33;13.83;;;;;;;-0.16;100.00;100638.55;1663506;85;21046;-93
2022/02/21 00:41:13;;;;;;;40.65;14.25;;;;;;;-0.22;100.00;100632.67;1663804;86;21114;-93
2022/02/21 00:43:39;;;;;;;40.03;14.13;;;;;;;-0.28;100.00;100631.09;1663689;85;21043;-93
2022/02/21 00:46:05;;;;;;;38.45;14.25;;;;;;;-0.34;100.00;100631.84;1663780;86;20999;-92
2022/02/21 00:48:31;;;;;;;44.85;15.23;;;;;;;-0.38;100.00;100639.01;1659441;86;20927;-93
2022/02/21 00:50:57;;;;;;;40.33;14.65;;;;;;;-0.47;100.00;100636.50;1663698;85;21141;-95
2022/02/21 00:53:23;;;;;;;40.95;14.20;;;;;;;-0.51;100.00;100637.04;1663627;85;21095;-95
2022/02/21 00:55:50;;;;;;;41.83;15.15;;;;;;;-0.55;100.00;100637.92;1663618;86;21550;-94
2022/02/21 00:58:16;;;;;;;40.15;15.48;;;;;;;-0.59;100.00;100635.34;1663405;85;20968;-94
2022/02/21 01:00:42;;;;;;;38.83;14.90;;;;;;;-0.65;100.00;100628.62;1663652;86;21086;-94
2022/02/21 01:03:08;;;;;;;44.98;14.98;;;;;;;-0.71;100.00;100630.19;1663677;86;21065;-94
2022/02/21 01:05:34;;;;;;;34.20;13.40;;;;;;;-0.75;100.00;100630.25;1663681;86;21063;-96
2022/02/21 01:08:01;;;;;;;35.88;14.00;;;;;;;-0.79;100.00;100629.80;1663516;85;21031;-94
2022/02/21 01:10:27;;;;;;;38.35;13.28;;;;;;;-0.84;100.00;100626.06;1663664;85;21043;-94
2022/02/21 01:12:53;;;;;;;32.78;13.65;;;;;;;-0.87;100.00;100625.11;1663302;85;21031;-96
2022/02/21 01:15:19;;;;;;;40.52;14.30;;;;;;;-0.92;100.00;100623.00;1667379;85;21073;-96
2022/02/21 01:17:46;;;;;;;41.48;13.48;;;;;;;-0.95;100.00;100619.41;1668642;84;21318;-94
2022/02/21 01:20:13;;;;;;;35.63;12.80;;;;;;;-0.99;100.00;100618.95;1637640;86;21057;-94
2022/02/21 01:22:39;;;;;;;37.73;13.43;;;;;;;-1.03;100.00;100615.05;1668478;84;21641;-93
2022/02/21 01:25:08;;;;;;;37.65;13.78;;;;;;;-1.07;100.00;100620.88;1668629;86;21094;-94
2022/02/21 01:27:35;;;;;;;38.55;13.83;;;;;;;-1.26;100.00;100590.02;1668480;85;21089;-96
2022/02/21 01:30:05;;;;;;;39.35;14.20;;;;;;;-1.17;100.00;100611.91;1668645;84;21451;-94
2022/02/21 01:32:31;;;;;;;35.98;13.70;;;;;;;-1.24;100.00;100601.22;1660033;86;21083;-94
2022/02/21 01:34:57;;;;;;;37.42;14.00;;;;;;;-1.27;100.00;100603.41;1637644;86;20911;-94
2022/02/21 01:37:23;;;;;;;37.88;13.48;;;;;;;-1.29;100.00;100602.80;1668679;86;21669;-94
2022/02/21 01:39:49;;;;;;;34.73;13.83;;;;;;;-1.33;100.00;100597.53;1668511;85;20931;-94
2022/02/21 01:42:15;;;;;;;39.33;13.72;;;;;;;-1.38;100.00;100596.77;1663419;84;20995;-94
2022/02/21 01:44:45;;;;;;;34.33;12.73;;;;;;;-1.40;100.00;100593.48;1668699;86;21428;-93
2022/02/21 01:47:15;;;;;;;36.83;13.20;;;;;;;-1.43;100.00;100591.20;1668643;84;21058;-94
2022/02/21 01:49:42;;;;;;;44.55;12.00;;;;;;;-1.45;100.00;100591.37;1668633;86;21062;-94
2022/02/21 01:52:09;;;;;;;34.05;12.50;;;;;;;-1.47;100.00;100590.75;1668751;86;21083;-95
2022/02/21 01:54:36;;;;;;;34.03;12.18;;;;;;;-1.50;100.00;100585.83;1668651;86;21132;-94
2022/02/21 01:57:03;;;;;;;35.45;12.23;;;;;;;-1.54;100.00;100591.64;1668553;84;21018;-93
2022/02/21 01:59:32;;;;;;;37.78;12.40;;;;;;;-1.53;100.00;100591.95;1668648;84;21023;-93
2022/02/21 02:01:58;;;;;;;31.35;10.93;;;;;;;-1.54;100.00;100590.31;1668602;86;21026;-92
2022/02/21 02:04:25;;;;;;;30.50;10.68;;;;;;;-1.55;100.00;100593.97;1668573;86;21062;-94
2022/02/21 02:06:52;;;;;;;29.72;10.70;;;;;;;-1.55;100.00;100594.78;1660098;85;21229;-95
2022/02/21 02:09:18;;;;;;;26.70;10.63;;;;;;;-1.56;100.00;100589.16;1668190;84;21034;-93
2022/02/21 02:11:44;;;;;;;28.80;10.32;;;;;;;-1.55;100.00;100591.33;1668642;84;21004;-94
2022/02/21 02:14:33;;;;;;;23.70;9.93;;;;;;;-1.56;100.00;100591.80;1636949;86;21149;-94
2022/02/21 02:17:15;;;;;;;22.30;8.73;;;;;;;-1.56;100.00;100594.45;1578770;88;21137;-93
2022/02/21 02:19:44;;;;;;;31.33;10.18;;;;;;;-1.56;100.00;100601.05;1578538;90;21128;-94
2022/02/21 02:22:16;;;;;;;30.55;10.45;;;;;;;-1.56;100.00;100608.16;1578453;90;21039;-93
2022/02/21 02:24:46;;;;;;;35.05;11.50;;;;;;;-1.58;100.00;100601.75;1566210;91;21023;-93
2022/02/21 02:27:13;;;;;;;35.10;11.60;;;;;;;-1.60;100.00;100593.17;1566076;91;21121;-95
2022/02/21 02:29:43;;;;;;;27.05;10.58;;;;;;;-1.60;100.00;100600.59;1566074;91;21098;-94
2022/02/21 02:32:11;;;;;;;28.05;10.70;;;;;;;-1.62;100.00;100594.70;1566254;91;21630;-96
2022/02/21 02:34:47;;;;;;;33.55;10.65;;;;;;;-1.62;100.00;100596.48;1566211;91;21119;-96
2022/02/21 02:37:17;;;;;;;26.20;9.50;;;;;;;-1.63;100.00;100596.18;1566061;91;21107;-94
2022/02/21 02:39:43;;;;;;;27.13;8.78;;;;;;;-1.64;100.00;100594.55;1565968;91;21016;-95
2022/02/21 02:42:10;;;;;;;31.00;9.60;;;;;;;-1.65;100.00;100590.25;1565979;91;21054;-95
2022/02/21 02:44:36;;;;;;;21.80;9.10;;;;;;;-1.66;100.00;100592.58;1566073;91;21653;-93
2022/02/21 02:47:11;;;;;;;26.65;8.98;;;;;;;-1.67;100.00;100592.27;1545989;91;21109;-95
2022/02/21 02:49:38;;;;;;;23.45;8.13;;;;;;;-1.68;100.00;100587.97;1566136;91;21098;-94
2022/02/21 02:52:05;;;;;;;27.02;8.33;;;;;;;-1.69;100.00;100593.75;1566069;91;21116;-94
2022/02/21 02:54:31;;;;;;;19.27;8.13;;;;;;;-1.69;100.00;100593.75;1599067;88;21120;-95
2022/02/21 02:56:57;;;;;;;23.92;8.98;;;;;;;-1.71;100.00;100595.75;1617689;88;21165;-94
2022/02/21 02:59:25;;;;;;;22.45;8.60;;;;;;;-1.71;100.00;100595.75;1617770;88;21057;-93
2022/02/21 03:01:52;;;;;;;30.43;9.85;;;;;;;-1.70;100.00;100604.52;1617499;87;20990;-94
2022/02/21 03:04:19;;;;;;;24.52;9.78;;;;;;;-1.71;100.00;100608.95;1617865;88;21057;-93
2022/02/21 03:06:45;;;;;;;29.05;9.85;;;;;;;-1.71;100.00;100605.50;1617899;88;21625;-93
2022/02/21 03:09:11;;;;;;;40.70;12.88;;;;;;;-1.70;100.00;100600.55;1617955;88;21346;-93
2022/02/21 03:11:37;;;;;;;33.67;12.18;;;;;;;-1.70;100.00;100592.63;1614145;88;21692;-93
2022/02/21 03:14:04;;;;;;;31.60;11.18;;;;;;;-1.67;100.00;100586.98;1617658;88;21093;-92
2022/02/21 03:16:30;;;;;;;32.93;11.25;;;;;;;-1.64;100.00;100587.95;1614578;88;21628;-93
2022/02/21 03:18:57;;;;;;;34.65;11.05;;;;;;;-1.63;100.00;100590.89;1614504;88;21034;-93
2022/02/21 03:21:24;;;;;;;32.20;11.05;;;;;;;-1.60;100.00;100585.25;1641964;84;21645;-93
2022/02/21 03:23:50;;;;;;;30.27;10.50;;;;;;;-1.55;100.00;100581.58;1671729;84;21075;-92
2022/02/21 03:26:16;;;;;;;29.67;10.68;;;;;;;-1.50;100.00;100578.38;1669261;86;21059;-95
2022/02/21 03:28:43;;;;;;;26.55;9.20;;;;;;;-1.47;100.00;100569.61;1671765;83;20990;-93
2022/02/21 03:31:11;;;;;;;29.65;9.18;;;;;;;-1.40;100.00;100569.69;1671646;83;21117;-92
2022/02/21 03:33:37;;;;;;;26.42;10.15;;;;;;;-1.32;100.00;100572.25;1665105;84;21073;-92
2022/02/21 03:36:03;;;;;;;24.10;9.73;;;;;;;-1.23;100.00;100570.34;1671560;83;21659;-92
2022/02/21 03:38:30;;;;;;;24.05;9.33;;;;;;;-1.13;100.00;100577.47;1671830;83;21038;-94
2022/02/21 03:40:56;;;;;;;26.65;9.33;;;;;;;-1.03;100.00;100572.73;1671952;83;21097;-92
2022/02/21 03:43:22;;;;;;;26.02;9.25;;;;;;;-0.93;100.00;100572.44;1671800;83;21336;-92
2022/02/21 03:45:48;;;;;;;23.83;9.15;;;;;;;-0.83;100.00;100577.44;1671778;83;21066;-92
2022/02/21 03:48:15;;;;;;;24.75;9.03;;;;;;;-0.73;100.00;100572.17;1668668;86;20975;-92
2022/02/21 03:50:41;;;;;;;28.42;9.70;;;;;;;-0.61;100.00;100572.51;1671462;83;21057;-92
2022/02/21 03:53:07;;;;;;;26.35;9.80;;;;;;;-0.49;100.00;100572.33;1668972;86;21515;-94
2022/02/21 03:55:33;;;;;;;21.87;9.13;;;;;;;-0.37;100.00;100572.66;1671589;83;21053;-92
2022/02/21 03:57:59;;;;;;;23.30;9.20;;;;;;;-0.29;100.00;100567.75;1668873;86;21949;-94
2022/02/21 04:00:25;;;;;;;29.67;10.03;;;;;;;-0.21;100.00;100567.59;1665226;84;21037;-92
2022/02/21 04:02:52;;;;;;;28.73;9.83;;;;;;;-0.12;100.00;100562.99;1668801;86;21006;-92
2022/02/21 04:05:18;;;;;;;24.95;9.25;;;;;;;-0.05;100.00;100559.40;1671614;83;21046;-92
2022/02/21 04:07:45;;;;;;;26.50;9.20;;;;;;;0.04;100.00;100561.92;1669502;84;21055;-92
2022/02/21 04:10:13;;;;;;;29.63;8.90;;;;;;;0.11;100.00;100566.75;1671819;83;21142;-92
2022/02/21 04:12:40;;;;;;;29.25;9.63;;;;;;;0.17;100.00;100564.66;1661496;85;21066;-92
2022/02/21 04:15:09;;;;;;;30.97;10.15;;;;;;;0.25;100.00;100568.50;1678276;83;21050;-92
2022/02/21 04:17:45;;;;;;;24.45;9.25;;;;;;;0.30;100.00;100552.84;1684811;85;21733;-92
2022/02/21 04:20:14;;;;;;;30.25;9.63;;;;;;;0.36;100.00;100552.07;1684939;85;21137;-92
2022/02/21 04:22:41;;;;;;;32.28;10.70;;;;;;;0.41;100.00;100553.64;1684870;85;21757;-94
2022/02/21 04:25:09;;;;;;;31.15;10.55;;;;;;;0.47;100.00;100553.85;1684777;84;20995;-91
2022/02/21 04:27:47;;;;;;;35.83;11.33;;;;;;;0.53;100.00;100559.70;1684857;84;21126;-92
2022/02/21 04:30:17;;;;;;;35.45;11.75;;;;;;;0.59;100.00;100564.22;1685109;84;21121;-94
2022/02/21 04:32:46;;;;;;;29.60;10.70;;;;;;;0.64;100.00;100565.28;1685325;84;21006;-93
2022/02/21 04:35:13;;;;;;;30.97;10.08;;;;;;;0.71;100.00;100565.81;1686415;83;21090;-91
2022/02/21 04:37:39;;;;;;;36.98;10.60;;;;;;;0.76;100.00;100566.88;1687270;83;21055;-92
2022/02/21 04:40:12;;;;;;;26.45;10.23;;;;;;;0.81;100.00;100569.77;1687629;83;20965;-92
2022/02/21 04:42:38;;;;;;;34.67;10.78;;;;;;;0.86;100.00;100573.98;1687303;84;21048;-90
2022/02/21 04:45:06;;;;;;;27.75;9.18;;;;;;;0.93;100.00;100577.17;1687585;83;21012;-92
2022/02/21 04:47:32;;;;;;;29.98;9.63;;;;;;;0.96;100.00;100585.55;1687520;83;22010;-90
2022/02/21 04:49:58;;;;;;;31.23;10.05;;;;;;;1.00;100.00;100582.83;1687238;84;21052;-90
2022/02/21 04:52:25;;;;;;;28.67;10.35;;;;;;;1.08;100.00;100575.19;1687339;83;21000;-89
2022/02/21 04:54:51;;;;;;;29.12;10.45;;;;;;;1.14;100.00;100575.21;1687367;83;21043;-90
2022/02/21 04:57:17;;;;;;;32.00;10.15;;;;;;;1.20;100.00;100571.46;1687477;83;20928;-90
2022/02/21 04:59:43;;;;;;;26.82;9.38;;;;;;;1.25;100.00;100576.48;1652424;86;21088;-90
2022/02/21 05:02:09;;;;;;;36.00;11.65;;;;;;;1.30;100.00;100582.02;1652208;86;21040;-92
2022/02/21 05:04:35;;;;;;;29.20;11.10;;;;;;;1.33;100.00;100585.61;1652186;86;21102;-91
2022/02/21 05:07:01;;;;;;;32.48;10.90;;;;;;;1.35;100.00;100589.37;1652404;86;20884;-89
2022/02/21 05:09:27;;;;;;;33.85;10.68;;;;;;;1.41;100.00;100579.80;1652127;86;21544;-90
2022/02/21 05:11:53;;;;;;;31.40;10.32;;;;;;;1.47;100.00;100576.34;1652082;86;21131;-90
2022/02/21 05:14:19;;;;;;;37.03;11.18;;;;;;;1.50;100.00;100578.59;1651961;86;20913;-92
2022/02/21 05:16:45;;;;;;;34.30;11.00;;;;;;;1.55;100.00;100580.96;1682824;84;20978;-92
2022/02/21 05:19:12;;;;;;;35.13;11.08;;;;;;;1.59;100.00;100574.25;1697038;84;21108;-91
2022/02/21 05:21:39;;;;;;;35.00;11.75;;;;;;;1.67;100.00;100572.41;1704180;84;21621;-91
2022/02/21 05:24:13;;;;;;;41.75;12.73;;;;;;;1.75;100.00;100569.56;1699744;83;21218;-91
2022/02/21 05:26:44;;;;;;;41.68;12.25;;;;;;;1.80;100.00;100565.28;1700827;82;21063;-92
2022/02/21 05:29:10;;;;;;;38.23;12.90;;;;;;;1.94;100.00;100563.95;1700054;83;21011;-92
2022/02/21 05:31:36;;;;;;;39.13;12.23;;;;;;;2.00;100.00;100556.48;1707303;83;21043;-92
2022/02/21 05:34:10;;;;;;;35.10;12.80;;;;;;;2.11;100.00;100561.72;1698565;83;20996;-89
2022/02/21 05:36:37;;;;;;;39.50;12.13;;;;;;;2.22;100.00;100557.92;1621009;86;21119;-89
2022/02/21 05:39:05;;;;;;;38.30;13.48;;;;;;;2.37;100.00;100556.38;1609138;87;21092;-90
2022/02/21 05:41:32;;;;;;;38.92;13.05;;;;;;;2.49;100.00;100561.88;1617375;87;21064;-90
2022/02/21 05:44:19;;;;;;;43.48;14.75;;;;;;;2.64;100.00;100559.80;1613838;87;21171;-89
2022/02/21 05:46:45;;;;;;;46.63;15.40;;;;;;;2.82;100.00;100564.98;1618979;88;21032;-89
2022/02/21 05:49:11;;;;;;;38.20;13.53;;;;;;;3.06;100.00;100568.78;1621169;88;21280;-90
2022/02/21 05:51:39;;;;;;;40.50;14.55;;;;;;;3.49;100.00;100569.52;1621899;87;21565;-90
2022/02/21 05:54:05;;;;;;;41.55;14.83;;;;;;;4.05;100.00;100566.86;1617921;87;21195;-91
2022/02/21 05:56:31;;;;;;;42.60;13.25;;;;;;;4.78;100.00;100564.03;1620585;88;21123;-88
2022/02/21 05:58:57;;;;;;;35.68;11.90;;;;;;;5.89;100.00;100564.64;1618370;87;21127;-88
2022/02/21 06:01:24;;;;;;;32.63;13.22;;;;;;;7.69;100.00;100581.65;1619897;88;21068;-88
2022/02/21 06:03:50;;;;;;;33.70;14.10;;;;;;;9.41;100.00;100570.71;1616137;88;21180;-89
2022/02/21 06:06:16;;;;;;;34.05;13.08;;;;;;;10.87;100.00;100568.13;1621626;87;21160;-89
2022/02/21 06:08:43;;;;;;;30.15;12.25;;;;;;;13.74;100.00;100547.07;1615335;87;21040;-89
2022/02/21 06:11:09;;;;;;;30.65;12.53;;;;;;;13.74;100.00;100547.07;1615145;87;21131;-89
2022/02/21 06:13:36;;;;;;;31.37;12.13;;;;;;;15.30;100.00;100567.20;1629727;88;21150;-88
2022/02/21 06:16:03;;;;;;;31.10;11.90;;;;;;;16.38;95.65;100573.16;1619732;88;21098;-89
2022/02/21 06:18:29;;;;;;;31.52;11.73;;;;;;;17.18;81.62;100571.94;1616625;88;21241;-89
2022/02/21 06:20:55;;;;;;;28.02;11.75;;;;;;;18.18;70.66;100572.41;1616587;88;21186;-89
2022/02/21 06:23:21;;;;;;;25.97;10.58;;;;;;;18.91;60.64;100563.93;1616660;88;21756;-89
2022/02/21 06:25:48;;;;;;;29.35;11.55;;;;;;;19.17;53.84;100568.91;1616612;88;21075;-92
2022/02/21 06:28:14;;;;;;;28.80;11.10;;;;;;;19.60;52.55;100564.06;1595147;88;21540;-89
2022/02/21 06:30:41;;;;;;;28.20;10.88;;;;;;;20.18;49.25;100570.17;1616733;88;21000;-90
2022/02/21 06:33:07;;;;;;;30.05;11.90;;;;;;;20.64;48.74;100569.40;1616761;88;21187;-89
2022/02/21 06:35:33;;;;;;;25.30;11.43;;;;;;;21.33;45.50;100567.44;1616491;88;21615;-89
2022/02/21 06:38:00;;;;;;;25.05;10.82;;;;;;;21.79;43.26;100561.53;1616631;88;21310;-88
2022/02/21 06:40:28;;;;;;;30.02;11.53;;;;;;;22.11;42.59;100568.17;1648590;85;21034;-90
2022/02/21 06:42:55;;;;;;;32.83;11.63;;;;;;;22.71;40.38;100560.98;1668650;85;20994;-93
2022/02/21 06:45:22;;;;;;;28.90;13.25;;;;;;;23.18;39.11;100551.75;1671235;85;21145;-91
2022/02/21 06:47:49;;;;;;;27.65;12.15;;;;;;;23.50;37.41;100559.59;1671518;85;21125;-92
2022/02/21 06:50:16;;;;;;;23.87;12.88;;;;;;;23.91;36.35;100556.23;1675588;84;21464;-93
2022/02/21 06:52:44;;;;;;;33.10;12.98;;;;;;;24.42;36.03;100553.70;1694405;84;21011;-91
2022/02/21 06:55:13;;;;;;;26.65;12.37;;;;;;;24.80;35.02;100559.75;1699759;83;21066;-91
2022/02/21 07:00:47;;;;;;;24.25;12.63;;;;;;;25.68;32.72;100569.00;1594780;89;21560;-92
2022/02/21 07:03:13;;;;;;;25.25;12.25;;;;;;;25.91;32.18;100580.94;1601540;89;21098;-91
2022/02/21 07:05:39;;;;;;;25.32;12.50;;;;;;;26.24;31.40;100573.50;1608523;89;21125;-90
2022/02/21 07:08:07;;;;;;;35.78;13.53;;;;;;;26.30;30.26;100575.39;1608317;89;21069;-90
2022/02/21 07:10:34;;;;;;;32.23;13.75;;;;;;;26.33;29.78;100565.56;1608397;89;21096;-90
2022/02/21 07:13:03;;;;;;;31.40;13.28;;;;;;;26.54;29.21;100563.20;1607387;87;21121;-92
2022/02/21 07:15:29;;;;;;;33.28;14.73;;;;;;;26.84;29.49;100562.48;1611217;87;21165;-91
2022/02/21 07:17:56;;;;;;;28.23;13.43;;;;;;;26.99;28.27;100564.30;1599539;87;21073;-91
2022/02/21 07:20:25;;;;;;;28.23;14.33;;;;;;;26.93;28.07;100557.48;1590786;89;21617;-90
2022/02/21 07:22:50;;;;;;;34.85;13.70;;;;;;;27.22;27.67;100564.27;1590183;90;21105;-90
2022/02/21 07:25:17;;;;;;;28.07;14.18;;;;;;;27.30;27.48;100558.26;1590555;90;21066;-91
2022/02/21 07:27:48;;;;;;;29.57;13.88;;;;;;;27.44;26.71;100561.78;1590688;90;21230;-90
2022/02/21 07:30:18;;;;;;;27.80;13.90;;;;;;;27.51;26.75;100554.97;1519628;94;21551;-91
2022/02/21 07:32:45;;;;;;;27.98;13.53;;;;;;;27.43;26.50;100531.93;1519498;92;21026;-89
2022/02/21 07:35:11;;;;;;;33.55;14.90;;;;;;;27.64;26.62;100551.56;1519592;94;21169;-90
2022/02/21 07:37:41;;;;;;;29.42;14.98;;;;;;;28.25;26.73;100553.65;1517571;92;21089;-91
2022/02/21 07:40:10;;;;;;;27.70;13.88;;;;;;;28.43;25.44;100548.89;1518802;91;21243;-91
2022/02/21 07:42:36;;;;;;;32.15;14.18;;;;;;;28.62;25.28;100554.78;1522364;92;21075;-90
2022/02/21 07:45:03;;;;;;;28.62;15.13;;;;;;;28.53;25.00;100557.31;1518040;92;21129;-90
2022/02/21 07:47:30;;;;;;;34.73;15.48;;;;;;;28.43;25.22;100551.06;1518349;92;21167;-90
2022/02/21 07:49:56;;;;;;;27.75;14.20;;;;;;;28.62;24.82;100547.84;1520643;91;21128;-89
2022/02/21 07:52:22;;;;;;;29.15;14.50;;;;;;;28.87;24.61;100552.20;1522336;91;21159;-90
2022/02/21 07:54:48;;;;;;;26.12;14.43;;;;;;;29.25;23.72;100552.88;1519246;92;21025;-89
2022/02/21 07:57:14;;;;;;;38.08;16.20;;;;;;;29.10;23.83;100557.55;1518002;91;21185;-89
2022/02/21 07:59:40;;;;;;;32.95;15.05;;;;;;;29.21;23.87;100555.64;1528048;91;21663;-89
2022/02/21 08:02:07;;;;;;;30.85;14.60;;;;;;;29.58;23.40;100548.45;1522443;91;21159;-89
2022/02/21 08:04:33;;;;;;;30.12;15.70;;;;;;;29.52;23.36;100548.63;1523141;91;21281;-89
2022/02/21 08:07:00;;;;;;;31.33;14.40;;;;;;;29.87;23.13;100552.16;1519531;92;21163;-89
2022/02/21 08:09:26;;;;;;;34.98;16.37;;;;;;;30.13;22.73;100545.28;1538705;92;21156;-88
2022/02/21 08:11:52;;;;;;;29.55;16.15;;;;;;;30.13;22.67;100543.89;1519485;92;21113;-90
2022/02/21 08:14:18;;;;;;;28.00;15.68;;;;;;;30.13;22.06;100542.50;1519424;92;21168;-90
2022/02/21 08:16:45;;;;;;;36.85;16.82;;;;;;;30.15;22.50;100550.65;1517175;93;21130;-92
2022/02/21 08:19:11;;;;;;;32.85;17.12;;;;;;;29.95;21.78;100545.25;1515863;93;20994;-90
2022/02/21 08:21:37;;;;;;;31.23;15.68;;;;;;;29.89;22.28;100549.00;1515682;93;21134;-91
2022/02/21 08:24:05;;;;;;;26.15;14.63;;;;;;;29.86;22.40;100540.06;1515536;93;21590;-90
2022/02/21 08:26:32;;;;;;;27.22;15.00;;;;;;;29.89;22.11;100540.66;1540673;88;21056;-91
2022/02/21 08:28:59;;;;;;;33.53;16.10;;;;;;;29.84;22.01;100546.00;1594693;88;21380;-91
2022/02/21 08:31:27;;;;;;;34.45;15.75;;;;;;;30.08;21.39;100538.11;1615848;88;21035;-91
2022/02/21 08:33:53;;;;;;;25.85;14.75;;;;;;;30.41;21.55;100543.92;1607877;89;21591;-90
2022/02/21 08:36:19;;;;;;;30.23;14.35;;;;;;;30.43;22.25;100540.77;1608178;89;21054;-90
2022/02/21 08:38:45;;;;;;;27.40;13.53;;;;;;;30.34;21.06;100543.94;1605973;89;21046;-89
2022/02/21 08:41:11;;;;;;;28.07;15.00;;;;;;;29.76;21.44;100540.22;1609797;89;21087;-90
2022/02/21 08:43:38;;;;;;;30.55;14.95;;;;;;;29.61;21.79;100537.95;1604213;89;21036;-89
2022/02/21 08:46:04;;;;;;;30.55;16.23;;;;;;;29.61;21.27;100541.33;1604074;89;21400;-88
2022/02/21 08:48:30;;;;;;;30.82;15.72;;;;;;;29.58;21.28;100540.72;1622112;85;21077;-88
2022/02/21 08:50:56;;;;;;;31.87;15.40;;;;;;;28.94;21.85;100545.30;1686872;85;21086;-88
2022/02/21 08:53:23;;;;;;;28.15;14.60;;;;;;;28.91;21.69;100541.92;1686794;85;21092;-88
2022/02/21 08:55:49;;;;;;;30.10;13.80;;;;;;;28.74;21.65;100526.77;1686646;85;20996;-88
2022/02/21 08:58:15;;;;;;;27.87;13.65;;;;;;;28.60;21.69;100542.70;1686802;85;21023;-89
2022/02/21 09:00:43;;;;;;;26.20;13.08;;;;;;;28.13;22.34;100537.30;1677373;84;21110;-88
2022/02/21 09:03:09;;;;;;;28.83;14.05;;;;;;;26.67;22.53;100543.84;1681347;84;21100;-89
2022/02/21 09:05:36;;;;;;;32.83;12.78;;;;;;;24.83;23.36;100546.05;1690907;84;21061;-89
2022/02/21 09:08:04;;;;;;;29.10;13.53;;;;;;;23.15;24.50;100541.44;1690843;84;21454;-88
2022/02/21 09:10:31;;;;;;;35.88;12.63;;;;;;;21.50;25.85;100536.36;1681981;84;21099;-88
2022/02/21 09:12:59;;;;;;;32.13;13.20;;;;;;;20.13;27.59;100541.03;1664440;84;21039;-88
2022/02/21 09:15:25;;;;;;;24.40;12.05;;;;;;;18.65;28.82;100541.42;1657002;86;21030;-87
2022/02/21 09:17:53;;;;;;;26.68;11.88;;;;;;;17.52;30.13;100544.77;1653780;85;21098;-87
2022/02/21 09:20:20;;;;;;;27.27;12.00;;;;;;;16.63;31.40;100550.70;1653851;86;21018;-88
2022/02/21 09:22:46;;;;;;;29.30;12.13;;;;;;;15.80;32.76;100545.87;1663352;85;21149;-90
2022/02/21 09:25:13;;;;;;;34.35;12.30;;;;;;;14.99;33.77;100540.44;1673116;85;21065;-88
2022/02/21 09:27:40;;;;;;;28.70;11.97;;;;;;;14.39;34.96;100537.85;1653878;86;21104;-88
2022/02/21 09:30:10;;;;;;;33.05;12.40;;;;;;;13.80;35.87;100539.72;1668525;85;21202;-88
2022/02/21 09:32:36;;;;;;;30.02;12.55;;;;;;;13.42;36.70;100531.31;1664143;84;21057;-89
2022/02/21 09:35:03;;;;;;;31.05;12.20;;;;;;;13.07;37.66;100533.08;1659564;86;20995;-88
2022/02/21 09:37:29;;;;;;;26.90;11.45;;;;;;;12.68;38.81;100530.27;1631183;86;21129;-87
2022/02/21 09:39:56;;;;;;;29.87;10.48;;;;;;;12.46;39.47;100530.58;1659354;85;21037;-88
2022/02/21 09:42:22;;;;;;;29.87;10.70;;;;;;;12.25;39.91;100537.38;1630832;86;21142;-88
2022/02/21 09:44:48;;;;;;;26.87;10.00;;;;;;;12.02;40.79;100535.23;1659253;86;21113;-88
2022/02/21 09:47:20;;;;;;;27.65;9.48;;;;;;;11.80;40.81;100538.19;1659419;86;21077;-87
2022/02/21 09:49:55;;;;;;;30.35;9.48;;;;;;;11.52;41.94;100534.09;1635534;86;21039;-87
2022/02/21 09:52:21;;;;;;;21.35;8.50;;;;;;;11.36;42.81;100536.76;1674725;83;21109;-89
2022/02/21 09:54:47;;;;;;;18.15;7.75;;;;;;;11.23;43.25;100529.70;1675986;83;21112;-88
2022/02/21 09:57:17;;;;;;;24.35;8.05;;;;;;;11.09;43.55;100534.26;1661848;83;21052;-88
2022/02/21 09:59:44;;;;;;;23.87;8.70;;;;;;;11.08;44.52;100533.97;1659747;85;21529;-89
2022/02/21 10:02:23;;;;;;;20.82;6.90;;;;;;;10.98;45.22;100531.25;1640503;86;21063;-88
2022/02/21 10:05:14;;;;;;;18.60;7.58;;;;;;;10.94;45.29;100530.14;1589333;87;21133;-89
2022/02/21 10:07:42;;;;;;;18.02;7.70;;;;;;;10.86;45.79;100532.02;1554297;90;21974;-89
2022/02/21 10:10:10;;;;;;;23.20;8.65;;;;;;;10.79;46.08;100530.88;1532062;90;21222;-89
2022/02/21 10:12:57;;;;;;;21.93;8.30;;;;;;;10.74;47.04;100528.73;1549995;90;21102;-89
2022/02/21 10:15:27;;;;;;;19.57;7.28;;;;;;;10.74;46.97;100529.53;1549276;90;21015;-89
2022/02/21 10:18:16;;;;;;;18.90;7.30;;;;;;;10.66;47.80;100530.83;1561022;90;21191;-89
2022/02/21 10:21:00;;;;;;;15.72;6.97;;;;;;;10.57;47.80;100527.02;1563877;90;21138;-90
2022/02/21 10:23:30;;;;;;;20.77;7.35;;;;;;;10.57;48.93;100519.47;1563208;91;21071;-92
2022/02/21 10:26:03;;;;;;;16.45;6.72;;;;;;;10.56;49.21;100524.05;1546840;91;21135;-89
2022/02/21 10:28:36;;;;;;;;;;;;;;;10.54;49.76;100513.26;1532541;93;21609;-89
2022/02/21 10:31:20;;;;;;;17.57;7.07;;;;;;;10.50;51.81;100516.19;1458872;98;20253;-87
2022/02/21 10:36:44;;;;;;;16.93;6.42;;;;;;;10.57;51.55;100527.55;1453104;98;20979;-88
2022/02/21 10:39:17;;;;;;;19.27;6.60;;;;;;;10.58;50.94;100513.80;1436223;98;28359;-88
2022/02/21 10:41:51;;;;;;;14.68;6.55;;;;;;;10.60;51.69;100512.21;1435694;98;21192;-88
2022/02/21 10:44:29;;;;;;;17.30;6.50;;;;;;;10.59;52.69;100507.36;1435855;99;21141;-87
2022/02/21 10:47:14;;;;;;;19.60;6.03;;;;;;;10.62;51.83;100506.84;1431477;100;22081;-89
2022/02/21 10:49:56;;;;;;;17.87;6.37;;;;;;;10.62;51.88;100501.98;1431478;99;21094;-89
2022/02/21 10:52:26;;;;;;;20.27;6.30;;;;;;;10.63;52.32;100506.30;1432391;98;21128;-89
2022/02/21 10:54:54;;;;;;;19.07;6.45;;;;;;;10.62;52.62;100500.64;1437235;97;21214;-90
2022/02/21 11:00:57;;;;;;;;;;;;;;;10.68;52.97;100492.31;1428676;98;21124;-89
2022/02/21 11:03:29;;;;;;;16.87;6.20;;;;;;;10.74;54.37;100489.10;1454324;98;20204;-89
2022/02/21 11:06:01;;;;;;;15.45;6.12;;;;;;;10.73;52.27;100494.74;1482729;95;21158;-91
2022/02/21 11:08:31;;;;;;;16.90;6.85;;;;;;;10.65;52.87;100488.80;1496546;94;21522;-88
2022/02/21 11:11:00;;;;;;;17.75;5.80;;;;;;;10.68;52.76;100478.03;1508529;94;21627;-89
2022/02/21 11:13:29;;;;;;;13.83;5.28;;;;;;;10.69;52.37;100477.75;1515016;93;21169;-89
2022/02/21 11:15:56;;;;;;;17.50;5.33;;;;;;;10.69;53.03;100480.98;1492967;96;21610;-90
2022/02/21 11:18:23;;;;;;;19.67;6.10;;;;;;;10.69;53.02;100476.94;1475499;94;21555;-89
2022/02/21 11:20:51;;;;;;;18.70;4.92;;;;;;;10.73;53.04;100475.88;1485504;96;21173;-89
2022/02/21 11:23:17;;;;;;;15.55;5.08;;;;;;;10.74;53.38;100482.37;1485598;96;21151;-89